Terminal Aerodrome Forecast
Issued by NWS

Home | Current Version | Previous Version | Text Only | Print | Product List | Glossary On
Versions: 1 2 3 4 5 6 7 8 9 10 11
322
FTUS44 KTSA 252338
TAFRVS
TAF
KRVS 252338Z 2600/2624 18012KT P6SM BKN050 BKN250
     FM260200 19011KT P6SM VCTS BKN035CB BKN250
      TEMPO 2604/2606 VRB30G45KT 2SM TSRA BKN025CB
     FM260600 36011KT P6SM VCSH SCT025 BKN035
     FM260900 01012KT 4SM -SHRA BR BKN010
     FM261400 35012G20KT P6SM VCSH BKN008 BKN012
     FM262100 33011G18KT P6SM BKN025=

USA.gov is the U.S. government's official web portal to all federal, state and local government web resources and services.